Уйташ

Карта отелей и гостиниц, располагающихся рядом с аэропортом Уйташ :

Уйташ
Махачкала
Дагестан 42° 49' 0.48" N, 47° 39' 8.7012" E
Код аэродрома ИКАО
URML
Код аэродрома RU
УРМЛ
Координаты
N42.81680° E047.65242°
Превышение над уровнем моря
4
Основная полоса
14R/32L
Курс магнитный
141/321
Длина основной ВПП
2645
Ширина основной ВПП
70
Покрытие основной ВПП
Нетвёрдое (грунт)
Освещение ВПП
Нет
Тип: 
Аэродром
Класс аэродрома: 
Международный
Принадлежность: 
ГА
Статус: 
Действующий
E-mail аэродрома: 
ad-st@icc-mt.net
Страна: 
Россия
Регион: 
Дагестан
Город: 
Махачкала
Схемы аэропортов: 
Погода: 

Авиационная погода в Махачкале

Регион: 
Погода METAR: 
URML 241700Z 19002MPS 9999 NSC 09/07 Q1016 R14/01//70 NOSIG RMK QFE762/1016
Время наблюдения
2021-10-24T17:00:00Z
Температура C
9.0
Точка росы
7.0
Направление ветра
190
Скорость ветра (узлы)
4
Метео видимость
6.21
Явления погоды
Условия полета
VFR
Аэропорт подробнее: 

Найти трансфер

С помощью этой формы Вы можете найти трансфер из аэропорта Уйташ в город, аэропорт или вокзал:

Карта места

Javascript is required to view this map.

Погода в аэропортах:

Авиационная погода в Ботсфьорде

Регион: 
Погода METAR: 
ENBS 241420Z 28005KT 9999 -SHSN FEW016 SCT023 BKN045 M01/M03 Q1012
Время наблюдения
2021-10-24T14:20:00Z
Температура C
-1.0
Точка росы
-3.0
Направление ветра
280
Скорость ветра (узлы)
5
Метео видимость
6.21
Явления погоды
-SHSN
Условия полета
VFR

Авиационная погода в Синопе

Регион: 
Погода METAR: 
LTCM 241650Z 32008KT 210V360 7000 -SHRA SCT015 BKN025 BKN070 13/11 Q1026
Время наблюдения
2021-10-24T16:50:00Z
Температура C
13.0
Точка росы
11.0
Направление ветра
320
Скорость ветра (узлы)
8
Метео видимость
4.35
Явления погоды
-SHRA
Условия полета
MVFR

Авиационная погода в Москва - Внуково

Погода METAR: 
UUWW 241700Z 33006MPS 9000 -SHSN BKN031CB 01/M04 Q1022 RMK WS R24 R24/290050 TEMPO 1500 SHSN BKN012CB
Время наблюдения
2021-10-24T17:00:00Z
Температура C
1.0
Точка росы
-4.0
Направление ветра
330
Скорость ветра (узлы)
12
Метео видимость
5.59
Явления погоды
-SHSN
Условия полета
VFR
Аэропорт подробнее: 

Авиационная погода в Воронеже

Регион: 
Погода METAR: 
UUOO 241700Z 33008MPS 9000 -SHRA BKN010 OVC///CB 03/01 Q1020 R30/290155 NOSIG RMK QFE752
Время наблюдения
2021-10-24T17:00:00Z
Температура C
3.0
Точка росы
1.0
Направление ветра
330
Скорость ветра (узлы)
16
Метео видимость
5.59
Явления погоды
-SHRA
Условия полета
MVFR
Аэропорт подробнее: